Time;durP1;ratioP1;P1;durP2;ratioP2;P2;SDS_P1;SDS_P2;PMS_P1;PMS_P2;Temp;Humidity;BMP_temperature;BMP_pressure;BME280_temperature;BME280_humidity;BME280_pressure;Samples;Min_cycle;Max_cycle;Signal;HPM_P1;HPM_P2
2022/02/22 00:00:35;;;;;;;15.60;4.50;;;6.60;99.90;;;;;;5072796;28;20174;-68
2022/02/22 00:03:01;;;;;;;15.03;4.50;;;6.60;99.90;;;;;;5055083;28;20204;-68
2022/02/22 00:05:26;;;;;;;16.57;4.27;;;6.50;99.90;;;;;;5073275;28;20381;-66
2022/02/22 00:07:53;;;;;;;21.73;5.47;;;6.40;99.90;;;;;;5073484;28;20790;-67
2022/02/22 00:10:19;;;;;;;14.10;5.40;;;6.40;99.90;;;;;;5078033;28;20242;-67
2022/02/22 00:12:45;;;;;;;17.80;4.80;;;6.40;99.90;;;;;;5083562;28;20425;-67
2022/02/22 00:15:11;;;;;;;16.40;5.10;;;6.40;99.90;;;;;;5082971;28;20475;-67
2022/02/22 00:17:39;;;;;;;19.70;5.80;;;6.30;99.90;;;;;;5092656;28;20214;-68
2022/02/22 00:20:06;;;;;;;18.50;4.60;;;6.30;99.90;;;;;;5074664;28;20437;-68
2022/02/22 00:22:32;;;;;;;15.00;4.60;;;6.40;99.90;;;;;;5092725;28;20410;-67
2022/02/22 00:24:57;;;;;;;15.20;4.43;;;6.50;99.90;;;;;;5091358;28;20441;-67
2022/02/22 00:27:23;;;;;;;17.23;4.40;;;6.50;99.90;;;;;;5082468;28;20187;-68
2022/02/22 00:29:48;;;;;;;24.80;5.43;;;6.50;99.90;;;;;;5072535;28;20179;-68
2022/02/22 00:32:15;;;;;;;20.67;5.57;;;6.40;99.90;;;;;;5071524;28;20183;-67
2022/02/22 00:34:40;;;;;;;18.73;6.73;;;6.40;99.90;;;;;;5071679;28;20195;-68
2022/02/22 00:37:06;;;;;;;21.03;4.90;;;6.40;99.90;;;;;;5071598;28;20428;-67
2022/02/22 00:39:31;;;;;;;21.27;5.40;;;6.40;99.90;;;;;;5071549;28;20288;-67
2022/02/22 00:41:57;;;;;;;16.67;5.70;;;6.30;99.90;;;;;;5071911;28;20581;-68
2022/02/22 00:44:23;;;;;;;21.73;4.77;;;6.30;99.90;;;;;;5071531;28;20615;-68
2022/02/22 00:46:50;;;;;;;19.57;5.10;;;6.20;99.90;;;;;;5071940;28;20185;-69
2022/02/22 00:49:16;;;;;;;33.40;7.40;;;6.30;99.90;;;;;;5057411;28;20800;-68
2022/02/22 00:51:41;;;;;;;22.83;6.00;;;6.30;99.90;;;;;;5075593;28;20421;-68
2022/02/22 00:54:07;;;;;;;17.17;4.60;;;6.20;99.90;;;;;;5075699;28;20413;-68
2022/02/22 00:56:32;;;;;;;14.40;4.37;;;6.30;99.90;;;;;;5075463;28;20685;-67
2022/02/22 00:58:59;;;;;;;16.43;4.63;;;6.20;99.90;;;;;;5074928;28;20237;-68
2022/02/22 01:01:24;;;;;;;21.40;5.80;;;6.20;99.90;;;;;;5075316;28;20175;-68
2022/02/22 01:03:50;;;;;;;13.90;5.43;;;6.10;99.90;;;;;;5075245;28;20418;-68
2022/02/22 01:06:15;;;;;;;29.20;5.77;;;6.10;99.90;;;;;;5075305;28;20695;-68
2022/02/22 01:08:41;;;;;;;24.33;6.17;;;6.20;99.90;;;;;;5075193;28;20175;-68
2022/02/22 01:11:07;;;;;;;19.87;5.50;;;6.20;99.90;;;;;;5074680;28;20182;-68
2022/02/22 01:13:32;;;;;;;19.40;5.50;;;6.10;99.90;;;;;;5074760;28;20186;-68
2022/02/22 01:15:58;;;;;;;17.20;5.03;;;6.10;99.90;;;;;;5076178;28;20514;-67
2022/02/22 01:18:23;;;;;;;11.67;3.53;;;6.00;99.90;;;;;;5075477;28;20223;-67
2022/02/22 01:20:49;;;;;;;10.67;4.23;;;5.90;99.90;;;;;;5075793;28;20171;-68
2022/02/22 01:23:15;;;;;;;13.67;3.97;;;5.80;99.90;;;;;;5075785;28;20179;-66
2022/02/22 01:25:41;;;;;;;14.63;4.37;;;5.90;99.90;;;;;;5075992;28;20499;-67
2022/02/22 01:28:07;;;;;;;22.20;5.73;;;6.00;99.90;;;;;;5076491;28;20794;-67
2022/02/22 01:30:32;;;;;;;17.03;5.63;;;6.10;99.90;;;;;;5075728;28;20179;-66
2022/02/22 01:32:58;;;;;;;18.23;4.50;;;6.10;99.90;;;;;;5076013;28;20187;-67
2022/02/22 01:35:24;;;;;;;25.30;5.33;;;6.00;99.90;;;;;;5076062;28;20300;-66
2022/02/22 01:37:49;;;;;;;25.93;6.70;;;6.00;99.90;;;;;;5082024;28;20198;-67
2022/02/22 01:40:15;;;;;;;20.83;7.43;;;6.00;99.90;;;;;;5077739;28;20187;-67
2022/02/22 01:42:40;;;;;;;20.40;5.83;;;6.00;99.90;;;;;;5078002;28;20220;-67
2022/02/22 01:45:06;;;;;;;27.53;6.20;;;6.10;99.90;;;;;;5078888;28;20199;-65
2022/02/22 01:47:32;;;;;;;22.37;5.90;;;6.20;99.90;;;;;;5083561;28;20175;-68
2022/02/22 01:49:57;;;;;;;25.93;6.43;;;6.10;99.90;;;;;;5084551;28;20455;-68
2022/02/22 01:52:23;;;;;;;25.50;6.10;;;6.10;99.90;;;;;;5086534;28;20242;-68
2022/02/22 01:54:49;;;;;;;24.80;7.00;;;6.10;99.90;;;;;;5078848;28;20221;-67
2022/02/22 01:57:17;;;;;;;27.03;6.40;;;6.10;99.90;;;;;;5075497;28;20619;-67
2022/02/22 01:59:43;;;;;;;27.03;6.00;;;6.10;99.90;;;;;;5073733;28;20210;-68
2022/02/22 02:02:09;;;;;;;20.20;6.10;;;6.00;99.90;;;;;;5081823;28;20441;-67
2022/02/22 02:04:34;;;;;;;25.40;6.53;;;6.10;99.90;;;;;;5091079;28;20544;-67
2022/02/22 02:07:00;;;;;;;22.93;7.13;;;6.00;99.90;;;;;;5091779;28;20176;-67
2022/02/22 02:09:26;;;;;;;21.60;5.70;;;5.90;99.90;;;;;;5092237;28;20241;-65
2022/02/22 02:11:59;;;;;;;23.10;6.13;;;6.00;99.90;;;;;;5094479;28;20206;-67
2022/02/22 02:14:26;;;;;;;20.07;5.83;;;6.10;99.90;;;;;;5090191;28;20248;-66
2022/02/22 02:16:53;;;;;;;24.33;6.23;;;6.10;99.90;;;;;;5093935;28;20418;-67
2022/02/22 02:19:20;;;;;;;22.97;5.93;;;6.10;99.90;;;;;;5080746;28;20444;-68
2022/02/22 02:21:46;;;;;;;24.33;5.80;;;6.10;99.90;;;;;;5074086;28;20876;-66
2022/02/22 02:24:20;;;;;;;19.77;6.10;;;6.10;99.90;;;;;;5074043;28;20425;-66
2022/02/22 02:26:46;;;;;;;25.33;5.33;;;6.10;99.90;;;;;;5077677;28;20953;-67
2022/02/22 02:29:15;;;;;;;28.17;6.53;;;6.10;99.90;;;;;;5056853;28;20428;-66
2022/02/22 02:31:42;;;;;;;20.73;5.87;;;6.00;99.90;;;;;;5073100;28;20432;-67
2022/02/22 02:34:11;;;;;;;23.97;7.17;;;5.90;99.90;;;;;;5073783;28;20777;-67
2022/02/22 02:36:38;;;;;;;18.97;5.77;;;5.90;99.90;;;;;;5073561;28;20417;-67
2022/02/22 02:39:04;;;;;;;21.93;6.10;;;5.80;99.90;;;;;;5073191;28;20540;-67
2022/02/22 02:41:30;;;;;;;21.67;5.20;;;5.90;99.90;;;;;;5055149;28;20782;-66
2022/02/22 02:44:01;;;;;;;23.23;6.40;;;5.90;99.90;;;;;;5055198;28;20413;-69
2022/02/22 02:46:27;;;;;;;25.37;6.03;;;5.90;99.90;;;;;;5055200;28;20685;-69
2022/02/22 02:48:54;;;;;;;26.10;7.60;;;5.80;99.90;;;;;;5072754;28;20433;-68
2022/02/22 02:51:20;;;;;;;25.00;6.20;;;5.80;99.90;;;;;;5073199;28;20179;-69
2022/02/22 02:53:45;;;;;;;20.47;5.90;;;5.70;99.90;;;;;;5055012;28;20467;-68
2022/02/22 02:56:11;;;;;;;22.50;7.00;;;5.70;99.90;;;;;;5072993;28;20683;-68
2022/02/22 02:58:36;;;;;;;21.00;5.23;;;5.70;99.90;;;;;;5072537;28;20199;-67
2022/02/22 03:01:02;;;;;;;19.43;5.40;;;5.70;99.90;;;;;;5072954;28;20198;-69
2022/02/22 03:03:28;;;;;;;19.23;7.30;;;5.70;99.90;;;;;;5072485;28;20220;-69
2022/02/22 03:05:54;;;;;;;17.07;5.40;;;5.80;99.90;;;;;;5054750;28;20615;-69
2022/02/22 03:08:20;;;;;;;25.13;6.20;;;5.90;99.90;;;;;;5072820;28;20502;-69
2022/02/22 03:10:45;;;;;;;16.83;6.17;;;5.90;99.90;;;;;;5053632;28;20179;-69
2022/02/22 03:13:11;;;;;;;17.13;5.10;;;5.90;99.90;;;;;;5072511;28;20428;-68
2022/02/22 03:15:36;;;;;;;27.90;6.20;;;6.00;99.90;;;;;;5072867;28;20607;-69
2022/02/22 03:18:02;;;;;;;21.60;5.80;;;6.00;99.90;;;;;;5072454;28;20203;-68
2022/02/22 03:20:28;;;;;;;30.23;5.47;;;6.00;99.90;;;;;;5054579;28;20218;-68
2022/02/22 03:22:53;;;;;;;17.67;6.90;;;5.90;99.90;;;;;;5072119;28;20182;-68
2022/02/22 03:25:19;;;;;;;13.23;4.67;;;6.00;99.90;;;;;;5054567;28;20247;-69
2022/02/22 03:27:44;;;;;;;20.30;5.90;;;6.00;99.90;;;;;;5072352;28;20580;-68
2022/02/22 03:30:11;;;;;;;26.07;6.47;;;5.80;99.90;;;;;;5072095;28;20415;-68
2022/02/22 03:32:36;;;;;;;18.70;5.70;;;5.80;99.90;;;;;;5071738;28;20304;-68
2022/02/22 03:35:03;;;;;;;20.43;6.30;;;5.80;99.90;;;;;;5072116;28;20436;-67
2022/02/22 03:37:28;;;;;;;21.23;5.70;;;5.90;99.90;;;;;;5054127;28;20182;-68
2022/02/22 03:39:54;;;;;;;22.57;7.27;;;6.00;99.90;;;;;;5072141;28;20503;-68
2022/02/22 03:42:19;;;;;;;19.90;7.33;;;6.10;99.90;;;;;;5071317;28;20174;-67
2022/02/22 03:44:45;;;;;;;13.57;5.33;;;6.20;99.90;;;;;;5072184;28;20594;-68
2022/02/22 03:47:10;;;;;;;30.47;7.20;;;6.30;99.90;;;;;;5071804;28;20205;-68
2022/02/22 03:49:36;;;;;;;16.40;5.87;;;6.30;99.90;;;;;;5072182;28;20177;-67
2022/02/22 03:52:01;;;;;;;18.03;6.27;;;6.40;99.90;;;;;;5071561;28;20271;-68
2022/02/22 03:54:27;;;;;;;25.20;5.20;;;6.40;99.90;;;;;;5072083;28;20759;-68
2022/02/22 03:56:52;;;;;;;15.90;5.00;;;6.40;99.90;;;;;;5071660;28;20174;-67
2022/02/22 03:59:18;;;;;;;17.97;5.30;;;6.40;99.90;;;;;;5071910;28;20198;-69
2022/02/22 04:01:43;;;;;;;21.63;5.17;;;6.30;99.90;;;;;;5071723;28;20172;-68
2022/02/22 04:04:09;;;;;;;15.37;4.17;;;6.30;99.90;;;;;;5071851;28;20190;-68
2022/02/22 04:06:34;;;;;;;20.30;5.13;;;6.30;99.90;;;;;;5091824;22;20228;-69
2022/02/22 04:09:00;;;;;;;18.87;5.97;;;6.30;99.90;;;;;;5062012;28;20189;-69
2022/02/22 04:11:25;;;;;;;15.07;5.20;;;6.40;99.90;;;;;;5051557;28;20261;-69
2022/02/22 04:13:51;;;;;;;24.53;5.70;;;6.20;99.90;;;;;;5051102;28;20174;-68
2022/02/22 04:16:17;;;;;;;20.20;5.80;;;6.10;99.90;;;;;;5051438;28;20170;-69
2022/02/22 04:18:42;;;;;;;23.20;5.97;;;6.10;99.90;;;;;;5051170;28;20210;-69
2022/02/22 04:21:08;;;;;;;21.80;5.20;;;6.00;99.90;;;;;;5084016;28;20256;-69
2022/02/22 04:23:33;;;;;;;21.83;6.00;;;5.90;99.90;;;;;;5097257;28;20177;-69
2022/02/22 04:25:59;;;;;;;19.70;5.53;;;5.90;99.90;;;;;;5098411;28;20169;-69
2022/02/22 04:28:24;;;;;;;20.33;5.80;;;5.90;99.90;;;;;;5098344;28;20534;-69
2022/02/22 04:30:50;;;;;;;18.27;5.70;;;5.80;99.90;;;;;;5098286;28;20177;-69
2022/02/22 04:33:15;;;;;;;23.67;5.87;;;5.70;99.90;;;;;;5097906;28;20167;-69
2022/02/22 04:35:41;;;;;;;18.43;5.40;;;5.70;99.90;;;;;;5098199;28;20185;-68
2022/02/22 04:38:07;;;;;;;23.03;5.50;;;5.70;99.90;;;;;;5090231;28;20285;-69
2022/02/22 04:40:32;;;;;;;18.47;5.33;;;5.70;99.90;;;;;;5078026;28;20226;-68
2022/02/22 04:42:58;;;;;;;26.90;5.87;;;5.70;99.90;;;;;;5076408;28;20176;-68
2022/02/22 04:45:23;;;;;;;16.93;4.80;;;5.80;99.90;;;;;;5077867;28;20186;-68
2022/02/22 04:47:49;;;;;;;21.33;5.90;;;5.90;99.90;;;;;;5077865;28;20690;-69
2022/02/22 04:50:17;;;;;;;21.13;5.53;;;5.90;99.90;;;;;;5077778;28;20548;-68
2022/02/22 04:52:42;;;;;;;15.07;4.23;;;6.00;99.90;;;;;;5078520;28;20202;-68
2022/02/22 04:55:08;;;;;;;16.87;5.00;;;5.90;99.90;;;;;;5077864;28;20816;-68
2022/02/22 04:57:35;;;;;;;15.70;5.40;;;5.80;99.90;;;;;;5077610;28;20189;-68
2022/02/22 05:00:03;;;;;;;23.60;5.87;;;5.80;99.90;;;;;;5059755;28;20846;-68
2022/02/22 05:02:28;;;;;;;25.47;6.90;;;5.60;99.90;;;;;;5077333;28;20408;-68
2022/02/22 05:04:54;;;;;;;27.60;5.90;;;5.60;99.90;;;;;;5078757;28;20420;-69
2022/02/22 05:07:19;;;;;;;22.90;5.70;;;5.70;99.90;;;;;;5077550;28;20253;-69
2022/02/22 05:09:45;;;;;;;22.07;6.13;;;5.80;99.90;;;;;;5077881;28;20295;-68
2022/02/22 05:12:10;;;;;;;23.33;5.80;;;5.90;99.90;;;;;;5077426;28;20170;-71
2022/02/22 05:14:36;;;;;;;18.70;5.67;;;5.90;99.90;;;;;;5078820;28;20182;-68
2022/02/22 05:17:02;;;;;;;22.03;5.83;;;5.80;99.90;;;;;;5077604;28;20200;-71
2022/02/22 05:19:27;;;;;;;30.23;7.40;;;5.70;99.90;;;;;;5077761;28;20538;-67
2022/02/22 05:21:53;;;;;;;21.20;5.90;;;5.80;99.90;;;;;;5077395;28;20421;-70
2022/02/22 05:24:18;;;;;;;27.70;8.33;;;5.90;99.90;;;;;;5078324;28;20180;-69
2022/02/22 05:26:44;;;;;;;19.83;6.93;;;5.90;99.90;;;;;;5077891;28;20688;-70
2022/02/22 05:29:09;;;;;;;21.00;7.93;;;5.80;99.90;;;;;;5077656;28;20657;-69
2022/02/22 05:31:35;;;;;;;25.23;8.10;;;5.70;99.90;;;;;;5077190;28;20258;-69
2022/02/22 05:34:01;;;;;;;23.77;7.87;;;5.70;99.90;;;;;;5075332;28;20251;-69
2022/02/22 05:36:26;;;;;;;25.47;8.63;;;5.70;99.90;;;;;;5077184;28;20672;-69
2022/02/22 05:38:52;;;;;;;21.43;7.97;;;5.60;99.90;;;;;;5074933;28;20456;-68
2022/02/22 05:41:18;;;;;;;30.10;9.13;;;5.60;99.90;;;;;;5074159;28;20615;-69
2022/02/22 05:43:48;;;;;;;22.33;7.67;;;5.60;99.90;;;;;;5074085;28;20186;-69
2022/02/22 05:46:14;;;;;;;28.63;8.47;;;5.60;99.90;;;;;;5075206;28;20433;-69
2022/02/22 05:48:40;;;;;;;17.20;7.80;;;5.60;99.90;;;;;;5074024;28;20405;-69
2022/02/22 05:51:05;;;;;;;24.77;6.83;;;5.60;99.90;;;;;;5056313;28;20255;-69
2022/02/22 05:53:33;;;;;;;27.53;8.70;;;5.60;99.90;;;;;;5073754;28;20411;-69
2022/02/22 05:55:59;;;;;;;27.83;8.13;;;5.60;99.90;;;;;;5055989;28;20265;-69
2022/02/22 05:58:24;;;;;;;24.53;8.47;;;5.70;99.90;;;;;;5074804;28;20591;-68
2022/02/22 06:00:50;;;;;;;17.87;7.17;;;5.70;99.90;;;;;;5074059;28;20174;-69
2022/02/22 06:03:15;;;;;;;22.57;7.00;;;5.80;99.90;;;;;;5073574;28;20161;-69
2022/02/22 06:05:41;;;;;;;17.17;7.90;;;5.80;99.90;;;;;;5091549;28;20180;-69
2022/02/22 06:08:06;;;;;;;19.97;7.43;;;5.70;99.90;;;;;;5093974;28;20293;-70
2022/02/22 06:10:32;;;;;;;23.67;8.53;;;5.80;99.90;;;;;;5075596;28;20838;-69
2022/02/22 06:12:57;;;;;;;22.50;8.30;;;5.80;99.90;;;;;;5093641;28;20184;-69
2022/02/22 06:15:23;;;;;;;17.27;8.63;;;5.70;99.90;;;;;;5092311;28;20185;-69
2022/02/22 06:17:49;;;;;;;24.40;7.33;;;5.70;99.90;;;;;;5093660;28;20669;-69
2022/02/22 06:20:15;;;;;;;21.93;8.50;;;5.70;99.90;;;;;;5093870;28;20410;-68
2022/02/22 06:22:40;;;;;;;19.53;8.07;;;5.70;99.90;;;;;;5093707;28;20168;-68
2022/02/22 06:25:08;;;;;;;20.87;8.53;;;5.50;99.90;;;;;;5091782;28;20700;-69
2022/02/22 06:27:44;;;;;;;24.37;9.10;;;5.50;99.90;;;;;;5093739;28;20423;-69
2022/02/22 06:30:10;;;;;;;22.93;7.37;;;5.50;99.90;;;;;;5093341;28;20426;-69
2022/02/22 06:32:35;;;;;;;21.03;7.63;;;5.60;99.90;;;;;;5093335;28;20410;-68
2022/02/22 06:35:01;;;;;;;17.00;6.90;;;5.50;99.90;;;;;;5093463;28;20200;-70
2022/02/22 06:37:26;;;;;;;26.33;7.87;;;5.50;99.90;;;;;;5091014;28;20319;-69
2022/02/22 06:39:52;;;;;;;21.63;8.03;;;5.50;99.90;;;;;;5073063;28;20245;-69
2022/02/22 06:42:17;;;;;;;25.67;7.77;;;5.70;99.90;;;;;;5073065;28;20669;-70
2022/02/22 06:44:43;;;;;;;23.50;7.07;;;5.80;99.90;;;;;;5072442;28;20175;-69
2022/02/22 06:47:08;;;;;;;22.27;8.07;;;5.80;99.90;;;;;;5073400;28;20213;-70
2022/02/22 06:49:34;;;;;;;20.83;7.20;;;5.90;99.90;;;;;;5074090;28;20570;-70
2022/02/22 06:52:00;;;;;;;27.90;7.33;;;5.90;99.90;;;;;;5072736;28;20316;-70
2022/02/22 06:54:25;;;;;;;24.67;6.60;;;5.90;99.90;;;;;;5072273;28;20189;-69
2022/02/22 06:56:51;;;;;;;9.33;5.40;;;5.90;99.90;;;;;;5072740;28;20206;-69
2022/02/22 06:59:16;;;;;;;20.17;5.50;;;5.90;99.90;;;;;;5073668;28;20255;-70
2022/02/22 07:01:42;;;;;;;21.13;6.17;;;6.00;99.90;;;;;;5072521;28;20179;-70
2022/02/22 07:04:07;;;;;;;23.73;6.00;;;5.90;99.90;;;;;;5072404;28;20179;-69
2022/02/22 07:06:33;;;;;;;27.83;6.30;;;5.90;99.90;;;;;;5072490;28;20687;-70
2022/02/22 07:08:58;;;;;;;15.87;5.90;;;5.90;99.90;;;;;;5073084;28;20187;-69
2022/02/22 07:11:24;;;;;;;21.87;5.60;;;6.00;99.90;;;;;;5073422;28;20199;-69
2022/02/22 07:13:50;;;;;;;22.20;7.80;;;6.00;99.90;;;;;;5071967;28;20183;-70
2022/02/22 07:16:16;;;;;;;21.80;6.03;;;6.00;99.90;;;;;;5072058;28;20421;-69
2022/02/22 07:18:43;;;;;;;19.93;7.07;;;6.00;99.90;;;;;;5072327;28;20199;-69
2022/02/22 07:21:09;;;;;;;26.03;7.80;;;6.00;99.90;;;;;;5055434;28;20422;-69
2022/02/22 07:23:34;;;;;;;22.23;7.73;;;5.90;99.90;;;;;;5064042;28;20473;-69
2022/02/22 07:26:00;;;;;;;19.23;7.33;;;6.00;99.90;;;;;;5068620;28;20456;-67
2022/02/22 07:28:25;;;;;;;20.40;9.10;;;6.00;99.90;;;;;;5069501;28;20300;-68
2022/02/22 07:30:51;;;;;;;30.43;9.40;;;5.90;99.90;;;;;;5071607;28;20218;-69
2022/02/22 07:33:17;;;;;;;21.27;8.47;;;5.90;99.90;;;;;;5055877;28;20216;-69
2022/02/22 07:35:42;;;;;;;24.30;8.70;;;5.90;99.90;;;;;;5069758;28;20209;-70
2022/02/22 07:38:08;;;;;;;26.50;9.53;;;6.00;99.90;;;;;;5068739;28;20619;-69
2022/02/22 07:40:33;;;;;;;28.97;11.03;;;6.00;99.90;;;;;;5070049;28;20206;-69
2022/02/22 07:43:00;;;;;;;18.60;9.60;;;6.00;99.90;;;;;;5070902;28;20235;-70
2022/02/22 07:45:26;;;;;;;19.43;8.57;;;6.10;99.90;;;;;;5069601;28;20702;-69
2022/02/22 07:47:51;;;;;;;27.40;9.83;;;6.10;99.90;;;;;;5071230;28;20804;-69
2022/02/22 07:50:17;;;;;;;26.03;10.17;;;6.10;99.90;;;;;;5069697;28;20420;-69
2022/02/22 07:52:43;;;;;;;26.47;11.23;;;6.00;99.90;;;;;;5076863;28;20182;-68
2022/02/22 07:55:09;;;;;;;18.33;8.73;;;6.00;99.90;;;;;;5091559;28;20412;-68
2022/02/22 07:57:35;;;;;;;27.20;11.17;;;6.10;99.90;;;;;;5086096;28;21165;-68
2022/02/22 08:00:00;;;;;;;16.80;9.87;;;6.20;99.90;;;;;;5071187;28;20960;-68
2022/02/22 08:02:26;;;;;;;24.00;10.13;;;6.20;99.90;;;;;;5070803;28;20413;-69
2022/02/22 08:04:52;;;;;;;22.63;8.80;;;6.20;99.90;;;;;;5072011;28;20257;-69
2022/02/22 08:07:20;;;;;;;25.20;8.90;;;6.20;99.90;;;;;;5068675;28;20979;-69
2022/02/22 08:09:46;;;;;;;21.17;8.40;;;6.20;99.90;;;;;;5071069;28;20178;-69
2022/02/22 08:12:12;;;;;;;24.97;8.10;;;6.30;99.90;;;;;;5070853;28;20404;-69
2022/02/22 08:14:37;;;;;;;22.77;7.70;;;6.40;99.90;;;;;;5071943;28;20954;-69
2022/02/22 08:17:03;;;;;;;13.40;6.80;;;6.50;99.90;;;;;;5070947;28;20202;-68
2022/02/22 08:19:30;;;;;;;19.33;7.10;;;6.60;99.90;;;;;;5070602;28;20451;-69
2022/02/22 08:21:56;;;;;;;12.93;5.87;;;6.60;99.90;;;;;;5070474;28;20177;-69
2022/02/22 08:24:23;;;;;;;21.57;7.17;;;6.60;99.90;;;;;;5071926;28;20436;-69
2022/02/22 08:26:49;;;;;;;14.67;7.17;;;6.60;99.90;;;;;;5070806;28;20429;-70
2022/02/22 08:29:15;;;;;;;20.93;8.40;;;6.70;99.90;;;;;;5070794;28;20473;-70
2022/02/22 08:31:40;;;;;;;16.30;7.70;;;6.70;99.90;;;;;;5070585;28;20423;-69
2022/02/22 08:34:06;;;;;;;18.47;7.73;;;6.70;99.90;;;;;;5070995;28;20183;-70
2022/02/22 08:36:31;;;;;;;17.63;7.13;;;6.70;99.90;;;;;;5087352;28;20214;-71
2022/02/22 08:38:58;;;;;;;22.03;7.27;;;6.80;99.90;;;;;;5077725;28;20222;-70
2022/02/22 08:41:24;;;;;;;13.87;7.10;;;6.80;99.90;;;;;;5070742;28;20260;-70
2022/02/22 08:43:50;;;;;;;20.33;7.50;;;6.90;99.90;;;;;;5070435;28;20450;-69
2022/02/22 08:46:16;;;;;;;14.83;7.87;;;6.90;99.90;;;;;;5070633;28;20180;-70
2022/02/22 08:48:42;;;;;;;21.87;7.50;;;6.90;99.90;;;;;;5071508;28;20463;-70
2022/02/22 08:51:07;;;;;;;14.73;7.70;;;7.10;99.90;;;;;;5070930;28;20487;-70
2022/02/22 08:53:33;;;;;;;17.73;7.90;;;7.20;99.90;;;;;;5070224;28;20188;-69
2022/02/22 08:56:00;;;;;;;17.30;7.20;;;7.20;99.90;;;;;;5070628;28;20192;-70
2022/02/22 08:58:26;;;;;;;15.13;6.50;;;7.20;99.90;;;;;;5070543;28;20210;-69
2022/02/22 09:00:52;;;;;;;16.63;7.30;;;7.20;99.90;;;;;;5071756;28;20908;-70
2022/02/22 09:03:17;;;;;;;18.83;7.30;;;7.10;99.90;;;;;;5070429;28;20214;-69
2022/02/22 09:05:43;;;;;;;16.40;7.33;;;7.00;99.90;;;;;;5070581;28;20183;-69
2022/02/22 09:08:08;;;;;;;14.63;5.70;;;7.00;99.90;;;;;;5052524;28;20715;-70
2022/02/22 09:10:34;;;;;;;20.77;6.50;;;7.00;99.90;;;;;;5074673;28;20547;-70
2022/02/22 09:13:00;;;;;;;12.00;6.00;;;7.00;99.90;;;;;;5074042;28;20741;-70
2022/02/22 09:15:28;;;;;;;15.33;6.00;;;7.10;99.90;;;;;;5074108;28;20185;-69
2022/02/22 09:17:53;;;;;;;14.80;6.03;;;7.10;99.90;;;;;;5073909;28;20616;-70
2022/02/22 09:20:22;;;;;;;12.03;5.47;;;7.20;99.90;;;;;;5074884;28;20514;-70
2022/02/22 09:22:47;;;;;;;13.43;6.03;;;7.20;99.90;;;;;;5074082;28;20183;-70
2022/02/22 09:25:15;;;;;;;14.03;5.70;;;7.20;99.90;;;;;;5073993;28;20893;-70
2022/02/22 09:27:44;;;;;;;13.63;6.37;;;7.30;99.90;;;;;;5073837;28;20206;-69
2022/02/22 09:30:14;;;;;;;14.77;6.83;;;7.30;99.90;;;;;;5074101;28;20766;-69
2022/02/22 09:32:40;;;;;;;11.63;5.50;;;7.40;99.90;;;;;;5074705;28;20493;-70
2022/02/22 09:35:07;;;;;;;16.73;6.00;;;7.50;99.90;;;;;;5073815;28;20454;-70
2022/02/22 09:37:32;;;;;;;16.63;6.50;;;7.50;99.90;;;;;;5073527;28;20526;-70
2022/02/22 09:39:58;;;;;;;11.57;6.40;;;7.50;99.90;;;;;;5073479;28;20536;-70
2022/02/22 09:42:25;;;;;;;12.97;6.30;;;7.50;99.90;;;;;;5082781;28;20233;-70
2022/02/22 09:44:52;;;;;;;12.47;4.90;;;7.50;99.90;;;;;;5093666;28;20149;-70
2022/02/22 09:47:18;;;;;;;12.13;6.50;;;7.60;99.90;;;;;;5093417;28;20435;-71
2022/02/22 09:49:44;;;;;;;11.60;6.23;;;7.60;99.90;;;;;;5093712;28;20449;-70
2022/02/22 09:52:10;;;;;;;16.40;5.43;;;7.60;99.90;;;;;;5091908;28;20427;-70
2022/02/22 09:54:36;;;;;;;12.63;5.37;;;7.60;99.90;;;;;;5093479;28;20430;-70
2022/02/22 09:57:02;;;;;;;17.17;5.77;;;7.70;99.90;;;;;;5093923;28;20436;-70
2022/02/22 09:59:27;;;;;;;10.23;4.80;;;7.80;99.90;;;;;;5093466;28;20200;-69
2022/02/22 10:01:55;;;;;;;11.40;5.60;;;7.80;99.90;;;;;;5092503;28;20175;-69
2022/02/22 10:04:21;;;;;;;11.53;6.33;;;7.90;99.90;;;;;;5092795;28;20180;-68
2022/02/22 10:06:47;;;;;;;12.70;6.00;;;7.90;99.90;;;;;;5093411;28;20446;-69
2022/02/22 10:09:13;;;;;;;11.17;5.40;;;8.00;99.90;;;;;;5093539;28;21112;-68
2022/02/22 10:11:50;;;;;;;12.77;6.30;;;8.00;99.90;;;;;;5093085;28;20572;-68
2022/02/22 10:14:19;;;;;;;14.83;5.93;;;8.10;99.90;;;;;;5091648;28;20444;-70
2022/02/22 10:16:46;;;;;;;12.63;5.60;;;8.30;99.90;;;;;;5093290;28;20530;-69
2022/02/22 10:19:15;;;;;;;12.30;5.00;;;8.30;99.90;;;;;;5093292;28;20563;-69
2022/02/22 10:21:43;;;;;;;10.80;6.10;;;8.40;99.90;;;;;;5092308;28;20410;-69
2022/02/22 10:24:15;;;;;;;15.27;5.80;;;8.40;99.90;;;;;;5091634;28;20426;-69
2022/02/22 10:26:41;;;;;;;20.20;6.40;;;8.30;99.90;;;;;;5092670;28;20527;-70
2022/02/22 10:29:18;;;;;;;13.63;5.80;;;8.40;99.90;;;;;;5092919;28;20489;-70
2022/02/22 10:31:46;;;;;;;14.90;6.50;;;8.50;99.90;;;;;;5087819;28;20177;-68
2022/02/22 10:34:12;;;;;;;12.63;7.03;;;8.50;99.90;;;;;;5074081;28;21003;-70
2022/02/22 10:36:43;;;;;;;16.03;6.90;;;8.50;99.90;;;;;;5072340;28;20454;-69
2022/02/22 10:39:10;;;;;;;9.90;5.50;;;8.60;99.90;;;;;;5086871;28;20986;-69
2022/02/22 10:41:40;;;;;;;10.70;6.70;;;8.70;99.90;;;;;;5092690;28;20429;-70
2022/02/22 10:44:08;;;;;;;12.07;6.00;;;8.70;99.90;;;;;;5092859;28;20404;-69
2022/02/22 10:46:37;;;;;;;10.90;5.83;;;8.70;99.90;;;;;;5092534;28;20435;-68
2022/02/22 10:49:13;;;;;;;14.10;5.87;;;8.50;99.90;;;;;;5091177;28;20565;-69
2022/02/22 10:51:44;;;;;;;12.67;6.07;;;8.50;99.90;;;;;;5092220;28;20416;-69
2022/02/22 10:54:19;;;;;;;13.00;6.40;;;8.60;99.90;;;;;;5092397;28;20424;-69
2022/02/22 10:56:45;;;;;;;10.83;5.90;;;8.60;99.90;;;;;;5092210;28;20427;-69
2022/02/22 10:59:11;;;;;;;10.80;5.60;;;8.60;99.90;;;;;;5090674;28;20520;-69
2022/02/22 11:01:36;;;;;;;9.03;5.60;;;8.60;99.90;;;;;;5073815;28;20425;-68
2022/02/22 11:04:03;;;;;;;15.80;6.57;;;8.60;99.90;;;;;;5092406;28;20174;-69
2022/02/22 11:06:28;;;;;;;11.30;6.10;;;8.70;99.90;;;;;;5092381;28;20210;-70
2022/02/22 11:08:56;;;;;;;9.47;5.50;;;8.60;99.90;;;;;;5091993;28;20473;-71
2022/02/22 11:11:27;;;;;;;9.73;5.50;;;8.70;99.90;;;;;;5090684;28;20193;-70
2022/02/22 11:14:02;;;;;;;16.30;6.00;;;8.70;99.90;;;;;;5074862;28;20461;-69
2022/02/22 11:16:48;;;;;;;15.20;5.97;;;8.70;99.90;;;;;;5051258;28;20803;-70
2022/02/22 11:19:17;;;;;;;10.60;5.40;;;8.70;99.90;;;;;;5051820;28;20522;-71
2022/02/22 11:21:45;;;;;;;12.80;5.40;;;8.80;99.90;;;;;;5068153;28;20456;-68
2022/02/22 11:24:11;;;;;;;12.03;5.40;;;8.80;99.90;;;;;;5071675;28;20444;-69
2022/02/22 11:26:49;;;;;;;9.60;4.67;;;8.80;99.90;;;;;;5071307;28;20909;-69
2022/02/22 11:29:15;;;;;;;23.20;7.00;;;8.80;99.90;;;;;;5071500;28;20558;-69
2022/02/22 11:31:42;;;;;;;10.73;5.10;;;8.90;99.90;;;;;;5071586;28;20538;-69
2022/02/22 11:34:08;;;;;;;12.27;5.13;;;8.90;99.90;;;;;;5073249;28;20514;-69
2022/02/22 11:36:37;;;;;;;10.10;5.30;;;8.90;99.90;;;;;;5074935;28;20430;-69
2022/02/22 11:39:18;;;;;;;8.23;4.90;;;9.00;99.90;;;;;;5090971;28;20487;-70
2022/02/22 11:41:44;;;;;;;9.70;5.17;;;9.00;99.90;;;;;;5058456;28;20756;-69
2022/02/22 11:44:18;;;;;;;12.57;5.50;;;8.90;99.90;;;;;;5053066;28;20424;-70
2022/02/22 11:46:52;;;;;;;11.03;4.73;;;8.80;99.90;;;;;;5071603;28;20751;-69
2022/02/22 11:49:34;;;;;;;9.60;4.87;;;8.80;99.90;;;;;;5071073;28;20435;-68
2022/02/22 11:52:08;;;;;;;7.10;4.10;;;8.90;99.90;;;;;;5071898;28;20423;-69
2022/02/22 11:54:34;;;;;;;15.70;4.90;;;8.90;99.90;;;;;;5071331;28;20423;-69
2022/02/22 11:57:04;;;;;;;14.18;5.40;;;8.90;99.90;;;;;;5070969;28;20812;-69
2022/02/22 11:59:31;;;;;;;12.10;4.67;;;8.90;99.90;;;;;;5071310;28;20199;-69
2022/02/22 12:01:58;;;;;;;14.37;4.70;;;8.90;99.90;;;;;;5071264;28;20419;-69
2022/02/22 12:04:34;;;;;;;13.83;4.70;;;9.00;99.90;;;;;;5072277;28;20420;-70
2022/02/22 12:07:01;;;;;;;14.23;4.90;;;9.00;99.90;;;;;;5070500;28;20446;-70
2022/02/22 12:09:37;;;;;;;14.00;4.33;;;8.90;99.90;;;;;;5071359;28;20820;-70
2022/02/22 12:12:08;;;;;;;12.10;4.97;;;9.00;99.90;;;;;;5071021;28;20418;-69
2022/02/22 12:14:35;;;;;;;17.00;5.40;;;9.00;99.90;;;;;;5071629;28;20897;-70
2022/02/22 12:17:05;;;;;;;12.80;5.00;;;9.00;99.90;;;;;;5069904;28;20916;-69
2022/02/22 12:19:31;;;;;;;11.50;3.80;;;9.10;99.90;;;;;;5072458;28;20467;-70
2022/02/22 12:21:56;;;;;;;12.37;4.00;;;9.00;99.90;;;;;;5071540;28;20421;-70
2022/02/22 12:24:23;;;;;;;13.63;4.30;;;8.90;99.90;;;;;;5072000;28;20437;-69
2022/02/22 12:26:50;;;;;;;12.83;4.67;;;8.90;99.90;;;;;;5071154;28;20213;-70
2022/02/22 12:29:15;;;;;;;16.83;4.77;;;9.00;99.90;;;;;;5071379;28;20419;-69
2022/02/22 12:31:43;;;;;;;10.67;5.00;;;9.00;99.90;;;;;;5070097;28;20419;-70
2022/02/22 12:34:11;;;;;;;10.87;4.30;;;9.00;99.90;;;;;;5071111;28;20168;-71
2022/02/22 12:36:42;;;;;;;12.93;4.57;;;9.00;99.90;;;;;;5071518;28;20445;-70
2022/02/22 12:39:10;;;;;;;16.13;4.80;;;9.00;99.90;;;;;;5071554;28;20488;-69
2022/02/22 12:41:40;;;;;;;10.70;4.00;;;9.00;99.90;;;;;;5070228;28;20413;-67
2022/02/22 12:44:11;;;;;;;16.10;4.70;;;8.90;99.90;;;;;;5073385;28;20406;-70